Burlington, WA (98233)

6:35 AM PST on November 26, 2014 (GMT -0800)
Bow | Change Station
CLOSE
Current Station
Personal Weather Station
Location: Bow, WA
Elevation: 85 ft
Nearby Weather Stations
Active Advisory: Areal Flood Watch Active Notice: Record Report

Elev 85 ft 48.54 °N, 122.37 °W | Updated 1 minute ago

Overcast
Overcast
52.2 °F
Feels Like 52.2 °F
N
0.0
Wind Variable Wind from ENE
Gusts 4.0 mph

Today
High -- | Low -- °F
--% Chance of Precip.
Yesterday
High -- | Low -- °F
Precip. -- in
7:33 AM 4:19 PM
Waxing Crescent, 20% visible
Pressure 30.09 in
Visibility 2.5 miles
Clouds Overcast 200 ft
Dew Point 52 °F
Humidity 98%
Rainfall 0.04 in
Snow Depth Not available.
UV 0 out of 12
Pollen .10 out of 12
Air Quality Not available.
Flu Activity Not available.
METAR KBVS 261415Z AUTO 13005KT 2 1/2SM OVC002 12/12 A3009 RMK A01 P000

More Conditions Fewer Conditions

Pressure 30.09 in
Visibility 2.5 miles
Clouds Overcast 200 ft
Dew Point 52 °F
Humidity 98%
Rainfall 0.04 in
Snow Depth Not available.
UV 0 out of 12
Pollen .10 out of 12
Air Quality Not available.
Flu Activity Not available.
METAR KBVS 261415Z AUTO 13005KT 2 1/2SM OVC002 12/12 A3009 RMK A01 P000

More Conditions Fewer Conditions

10-Day Weather Forecast

Almanac

Astronomy

Nov. 26, 2014 Rise Set
Actual Time
Civil Twilight
Nautical Twilight
Astronomical Twilight
Moon
Length of Visible Light
Length of Day
Tomorrow will be .
, % of the Moon is Illuminated

Today's Extremes

State Highs State Lows

Community

WunderPhotos

Upload Photos

1,773,756 photos uploaded!

WunderBlogs® & News

Nearby

Air Quality

  Air Quality AQ Index Pollutant
Not available.

Snow Depth

Station Depth Elevation

Earthquake Activity

City Distance Mag. Time & Date
Minimum magnitude displayed is 2.5.

Coastal Water Temperatures

Place Temperature

Nearby Weather Stations